岩国 の空港の天気 - METARとTAF

岩国飛行場 ( RJOI / IWK ) - 山口県岩国市
飛行場実況気象(Metar)
観測時間11/23 23:55 JST (11/23 14:55 UTC)
風向・風速北北西 4m/s
視程10km以上
天気現象
少しの雲 雲底高度 760m
全天の4割程度の雲 雲底高度 1220m
全天の8割程度の雲 雲底高度 2440m
気温7.8℃
湿度63%
気圧1020.9hPa
METARRJOI 231455Z 33008KT 9999 FEW025 SCT040 BKN080 08/01 A3015 RMK SLP209 T00780011 401280061 53010
過去の天気等 Google飛行場航空写真 Wunderground天気予報

過去48時間のMETAR

飛行場予報(TAF)
発表時間: -
24日7時 JST から
風向・風速西北西 6m/s
視程8,000m
天気現象弱いしゅう雨
少しの雲 雲底高度 460m
全天の8割程度の雲 雲底高度 910m
全天の8割程度の雲 雲底高度 1,370m
24日13時 JST ~ 24日15時 JST に徐々に
風向・風速西 8m/s 瞬間風速 10m/s
視程10km以上
天気現象運行に影響にある天気現象が終了
少しの雲 雲底高度 460m
全天の8割程度の雲 雲底高度 910m
全天の8割程度の雲 雲底高度 1,370m
24日23時 JST から
風向・風速北西 5m/s
視程10km以上
少しの雲 雲底高度 460m
全天の4割程度の雲 雲底高度 910m
全天の8割程度の雲 雲底高度 7,010m
TAF RJOI 2315/2415 30004KT 9999 FEW025 BKN080 520004 QNH3012INS
FM232200 29012KT 8000 -SHRA FEW015 BKN030 BKN045 530006 QNH3014INS
BECMG 2404/2406 27015G20KT 9999 NSW FEW015 BKN030 BKN045 530006 QNH3015INS
FM241400 31009KT 9999 FEW015 SCT030 BKN230 500000 QNH3016INS T06/2321Z T13/2406Z
日本の空港のMETAR・TAFへのリンク

RJTT 東京国際空港
RJAA 新東京国際空港
RJBB 関西国際空港
RJOO 大阪空港
RJGG 中部国際空港
RJCC 新千歳空港
RJFF 福岡空港
ROAH 那覇空港


RJEC 旭川空港
RJCH 函館空港
RJCK 釧路空港
RJCM 女満別空港
RJCB 帯広空港
RJSA 青森空港
RJSS 仙台空港
RJSK 秋田空港
RJSF 福島空港
RJAH 茨城空港
RJSN 新潟空港
RJNT 富山空港
RJNK 小松飛行場
RJNS 静岡空港
RJOH 美保飛行場
RJOC 出雲空港
RJOB 岡山空港
RJOA 広島空港
RJOI 岩国飛行場
RJOT 高松空港
RJOM 松山空港
RJOK 高知空港
RJFR 北九州空港
RJFT 熊本空港
RJFU 長崎空港
RJFS 佐賀空港
RJFO 大分空港
RJFM 宮崎空港
RJFK 鹿児島空港
ROIG 石垣島空港
RJTY 横田飛行場
ROTM 普天間飛行場
RODN 嘉手納飛行場